Terminal Aerodrome Forecast
Issued by NWS

Home | Current Version | Previous Version | Text Only | Print | Product List | Glossary On
Versions: 1 2 3 4 5 6 7 8 9 10 11 12 13 14 15
145
FTUS42 KTAE 311720
TAFVLD
TAF
KVLD 311720Z 3118/0118 24004KT P6SM SCT050
      TEMPO 3119/3123 21015G25KT 5SM TSRA SCT015CB BKN040
     FM011100 00000KT 3SM BR SCT002
     FM011300 30003KT P6SM SCT250=

USA.gov is the U.S. government's official web portal to all federal, state and local government web resources and services.